sensor_id;sensor_type;location;lat;lon;timestamp;temperature;humidity
22337;DHT22;14992;50.844;4.418;2023-10-09T00:00:34;19.30;99.90
22337;DHT22;14992;50.844;4.418;2023-10-09T00:03:30;19.30;99.90
22337;DHT22;14992;50.844;4.418;2023-10-09T00:06:01;19.20;99.90
22337;DHT22;14992;50.844;4.418;2023-10-09T00:08:31;19.10;99.90
22337;DHT22;14992;50.844;4.418;2023-10-09T00:11:03;19.10;99.90
22337;DHT22;14992;50.844;4.418;2023-10-09T00:13:45;19.10;99.90
22337;DHT22;14992;50.844;4.418;2023-10-09T00:16:19;19.10;99.90
22337;DHT22;14992;50.844;4.418;2023-10-09T00:19:04;19.00;99.90
22337;DHT22;14992;50.844;4.418;2023-10-09T00:21:45;19.10;99.90
22337;DHT22;14992;50.844;4.418;2023-10-09T00:24:14;19.10;99.90
22337;DHT22;14992;50.844;4.418;2023-10-09T00:26:51;19.10;99.90
22337;DHT22;14992;50.844;4.418;2023-10-09T00:29:23;19.20;99.90
22337;DHT22;14992;50.844;4.418;2023-10-09T00:32:06;19.20;99.90
22337;DHT22;14992;50.844;4.418;2023-10-09T00:34:42;19.20;99.90
22337;DHT22;14992;50.844;4.418;2023-10-09T00:37:12;19.20;99.90
22337;DHT22;14992;50.844;4.418;2023-10-09T00:39:44;19.30;99.90
22337;DHT22;14992;50.844;4.418;2023-10-09T00:42:15;19.40;99.90
22337;DHT22;14992;50.844;4.418;2023-10-09T00:44:57;19.40;99.90
22337;DHT22;14992;50.844;4.418;2023-10-09T00:47:31;19.40;99.90
22337;DHT22;14992;50.844;4.418;2023-10-09T00:50:06;19.30;99.90
22337;DHT22;14992;50.844;4.418;2023-10-09T00:52:39;19.30;99.90
22337;DHT22;14992;50.844;4.418;2023-10-09T00:55:12;19.30;99.90
22337;DHT22;14992;50.844;4.418;2023-10-09T00:57:45;19.30;99.90
22337;DHT22;14992;50.844;4.418;2023-10-09T01:00:24;19.20;99.90
22337;DHT22;14992;50.844;4.418;2023-10-09T01:03:01;19.20;99.90
22337;DHT22;14992;50.844;4.418;2023-10-09T01:05:50;19.20;99.90
22337;DHT22;14992;50.844;4.418;2023-10-09T01:08:27;19.10;99.90
22337;DHT22;14992;50.844;4.418;2023-10-09T01:11:12;19.10;99.90
22337;DHT22;14992;50.844;4.418;2023-10-09T01:13:47;19.10;99.90
22337;DHT22;14992;50.844;4.418;2023-10-09T01:16:23;19.20;99.90
22337;DHT22;14992;50.844;4.418;2023-10-09T01:18:54;19.10;99.90
22337;DHT22;14992;50.844;4.418;2023-10-09T01:21:26;19.10;99.90
22337;DHT22;14992;50.844;4.418;2023-10-09T01:24:01;19.00;99.90
22337;DHT22;14992;50.844;4.418;2023-10-09T01:26:37;18.90;99.90
22337;DHT22;14992;50.844;4.418;2023-10-09T01:29:15;18.90;99.90
22337;DHT22;14992;50.844;4.418;2023-10-09T01:31:46;18.80;99.90
22337;DHT22;14992;50.844;4.418;2023-10-09T01:34:23;18.80;99.90
22337;DHT22;14992;50.844;4.418;2023-10-09T01:36:59;18.90;99.90
22337;DHT22;14992;50.844;4.418;2023-10-09T01:39:35;18.90;99.90
22337;DHT22;14992;50.844;4.418;2023-10-09T01:42:08;18.90;99.90
22337;DHT22;14992;50.844;4.418;2023-10-09T01:44:38;18.80;99.90
22337;DHT22;14992;50.844;4.418;2023-10-09T01:47:11;18.70;99.90
22337;DHT22;14992;50.844;4.418;2023-10-09T01:49:45;18.70;99.90
22337;DHT22;14992;50.844;4.418;2023-10-09T01:52:16;18.80;99.90
22337;DHT22;14992;50.844;4.418;2023-10-09T01:54:51;18.70;99.90
22337;DHT22;14992;50.844;4.418;2023-10-09T01:57:20;18.60;99.90
22337;DHT22;14992;50.844;4.418;2023-10-09T01:59:51;18.70;99.90
22337;DHT22;14992;50.844;4.418;2023-10-09T02:02:22;18.70;99.90
22337;DHT22;14992;50.844;4.418;2023-10-09T02:04:58;18.70;99.90
22337;DHT22;14992;50.844;4.418;2023-10-09T02:07:44;18.60;99.90
22337;DHT22;14992;50.844;4.418;2023-10-09T02:10:22;18.60;99.90
22337;DHT22;14992;50.844;4.418;2023-10-09T02:13:01;18.60;99.90
22337;DHT22;14992;50.844;4.418;2023-10-09T02:15:36;18.60;99.90
22337;DHT22;14992;50.844;4.418;2023-10-09T02:18:21;18.60;99.90
22337;DHT22;14992;50.844;4.418;2023-10-09T02:21:08;18.70;99.90
22337;DHT22;14992;50.844;4.418;2023-10-09T02:23:43;18.70;99.90
22337;DHT22;14992;50.844;4.418;2023-10-09T02:26:19;18.60;99.90
22337;DHT22;14992;50.844;4.418;2023-10-09T02:28:55;18.60;99.90
22337;DHT22;14992;50.844;4.418;2023-10-09T02:31:28;18.50;99.90
22337;DHT22;14992;50.844;4.418;2023-10-09T02:34:04;18.50;99.90
22337;DHT22;14992;50.844;4.418;2023-10-09T02:36:36;18.50;99.90
22337;DHT22;14992;50.844;4.418;2023-10-09T02:39:10;18.60;99.90
22337;DHT22;14992;50.844;4.418;2023-10-09T02:41:53;18.60;99.90
22337;DHT22;14992;50.844;4.418;2023-10-09T02:44:28;18.50;99.90
22337;DHT22;14992;50.844;4.418;2023-10-09T02:47:02;18.50;99.90
22337;DHT22;14992;50.844;4.418;2023-10-09T02:49:35;18.50;99.90
22337;DHT22;14992;50.844;4.418;2023-10-09T02:52:05;18.50;99.90
22337;DHT22;14992;50.844;4.418;2023-10-09T02:54:35;18.60;99.90
22337;DHT22;14992;50.844;4.418;2023-10-09T02:57:10;18.60;99.90
22337;DHT22;14992;50.844;4.418;2023-10-09T02:59:49;18.60;99.90
22337;DHT22;14992;50.844;4.418;2023-10-09T03:02:20;18.50;99.90
22337;DHT22;14992;50.844;4.418;2023-10-09T03:04:51;18.60;99.90
22337;DHT22;14992;50.844;4.418;2023-10-09T03:07:23;18.60;99.90
22337;DHT22;14992;50.844;4.418;2023-10-09T03:09:53;18.50;99.90
22337;DHT22;14992;50.844;4.418;2023-10-09T03:12:24;18.60;99.90
22337;DHT22;14992;50.844;4.418;2023-10-09T03:14:55;18.50;99.90
22337;DHT22;14992;50.844;4.418;2023-10-09T03:17:28;18.50;99.90
22337;DHT22;14992;50.844;4.418;2023-10-09T03:19:59;18.40;99.90
22337;DHT22;14992;50.844;4.418;2023-10-09T03:22:35;18.40;99.90
22337;DHT22;14992;50.844;4.418;2023-10-09T03:25:05;18.30;99.90
22337;DHT22;14992;50.844;4.418;2023-10-09T03:27:40;18.30;99.90
22337;DHT22;14992;50.844;4.418;2023-10-09T03:30:13;18.30;99.90
22337;DHT22;14992;50.844;4.418;2023-10-09T03:32:52;18.10;99.90
22337;DHT22;14992;50.844;4.418;2023-10-09T03:35:23;18.10;99.90
22337;DHT22;14992;50.844;4.418;2023-10-09T03:37:56;18.00;99.90
22337;DHT22;14992;50.844;4.418;2023-10-09T03:40:28;18.00;99.90
22337;DHT22;14992;50.844;4.418;2023-10-09T03:43:01;18.10;99.90
22337;DHT22;14992;50.844;4.418;2023-10-09T03:45:31;18.00;99.90
22337;DHT22;14992;50.844;4.418;2023-10-09T03:48:03;18.00;99.90
22337;DHT22;14992;50.844;4.418;2023-10-09T03:50:42;17.80;99.90
22337;DHT22;14992;50.844;4.418;2023-10-09T03:53:11;17.70;99.90
22337;DHT22;14992;50.844;4.418;2023-10-09T03:55:40;17.80;99.90
22337;DHT22;14992;50.844;4.418;2023-10-09T03:58:11;17.70;99.90
22337;DHT22;14992;50.844;4.418;2023-10-09T04:00:41;17.60;99.90
22337;DHT22;14992;50.844;4.418;2023-10-09T04:03:15;17.70;99.90
22337;DHT22;14992;50.844;4.418;2023-10-09T04:05:44;17.60;99.90
22337;DHT22;14992;50.844;4.418;2023-10-09T04:08:13;17.60;99.90
22337;DHT22;14992;50.844;4.418;2023-10-09T04:10:47;17.70;99.90
22337;DHT22;14992;50.844;4.418;2023-10-09T04:13:31;17.80;99.90
22337;DHT22;14992;50.844;4.418;2023-10-09T04:16:08;17.80;99.90
22337;DHT22;14992;50.844;4.418;2023-10-09T04:19:01;17.90;99.90
22337;DHT22;14992;50.844;4.418;2023-10-09T04:21:39;17.90;99.90
22337;DHT22;14992;50.844;4.418;2023-10-09T04:24:09;17.90;99.90
22337;DHT22;14992;50.844;4.418;2023-10-09T04:26:50;18.00;99.90
22337;DHT22;14992;50.844;4.418;2023-10-09T04:29:27;18.10;99.90
22337;DHT22;14992;50.844;4.418;2023-10-09T04:32:05;18.20;99.90
22337;DHT22;14992;50.844;4.418;2023-10-09T04:34:36;18.20;99.90
22337;DHT22;14992;50.844;4.418;2023-10-09T04:37:15;18.20;99.90
22337;DHT22;14992;50.844;4.418;2023-10-09T04:40:08;18.30;99.90
22337;DHT22;14992;50.844;4.418;2023-10-09T04:42:40;18.30;99.90
22337;DHT22;14992;50.844;4.418;2023-10-09T04:45:27;18.30;99.90
22337;DHT22;14992;50.844;4.418;2023-10-09T04:48:13;18.30;99.90
22337;DHT22;14992;50.844;4.418;2023-10-09T04:51:00;18.30;99.90
22337;DHT22;14992;50.844;4.418;2023-10-09T04:53:47;18.40;99.90
22337;DHT22;14992;50.844;4.418;2023-10-09T04:56:22;18.30;99.90
22337;DHT22;14992;50.844;4.418;2023-10-09T04:58:52;18.20;99.90
22337;DHT22;14992;50.844;4.418;2023-10-09T05:01:32;18.20;99.90
22337;DHT22;14992;50.844;4.418;2023-10-09T05:04:11;18.30;99.90
22337;DHT22;14992;50.844;4.418;2023-10-09T05:06:57;18.30;99.90
22337;DHT22;14992;50.844;4.418;2023-10-09T05:09:26;18.30;99.90
22337;DHT22;14992;50.844;4.418;2023-10-09T05:12:14;18.30;99.90
22337;DHT22;14992;50.844;4.418;2023-10-09T05:14:44;18.20;99.90
22337;DHT22;14992;50.844;4.418;2023-10-09T05:17:35;18.20;99.90
22337;DHT22;14992;50.844;4.418;2023-10-09T05:20:06;18.10;99.90
22337;DHT22;14992;50.844;4.418;2023-10-09T05:22:52;18.10;99.90
22337;DHT22;14992;50.844;4.418;2023-10-09T05:25:47;18.10;99.90
22337;DHT22;14992;50.844;4.418;2023-10-09T05:28:23;18.00;99.90
22337;DHT22;14992;50.844;4.418;2023-10-09T05:30:59;17.90;99.90
22337;DHT22;14992;50.844;4.418;2023-10-09T05:33:35;18.00;99.90
22337;DHT22;14992;50.844;4.418;2023-10-09T05:36:06;18.00;99.90
22337;DHT22;14992;50.844;4.418;2023-10-09T05:39:00;18.00;99.90
22337;DHT22;14992;50.844;4.418;2023-10-09T05:41:44;18.10;99.90
22337;DHT22;14992;50.844;4.418;2023-10-09T05:44:20;18.10;99.90
22337;DHT22;14992;50.844;4.418;2023-10-09T05:47:06;18.10;99.90
22337;DHT22;14992;50.844;4.418;2023-10-09T05:49:59;18.10;99.90
22337;DHT22;14992;50.844;4.418;2023-10-09T05:52:44;18.20;99.90
22337;DHT22;14992;50.844;4.418;2023-10-09T05:55:32;18.10;99.90
22337;DHT22;14992;50.844;4.418;2023-10-09T05:58:20;18.10;99.90
22337;DHT22;14992;50.844;4.418;2023-10-09T06:01:07;18.00;99.90
22337;DHT22;14992;50.844;4.418;2023-10-09T06:03:54;18.00;99.90
22337;DHT22;14992;50.844;4.418;2023-10-09T06:06:35;18.00;99.90
22337;DHT22;14992;50.844;4.418;2023-10-09T06:09:11;17.90;99.90
22337;DHT22;14992;50.844;4.418;2023-10-09T06:11:58;17.90;99.90
22337;DHT22;14992;50.844;4.418;2023-10-09T06:14:44;17.90;99.90
22337;DHT22;14992;50.844;4.418;2023-10-09T06:17:34;17.90;99.90
22337;DHT22;14992;50.844;4.418;2023-10-09T06:20:11;18.00;99.90
22337;DHT22;14992;50.844;4.418;2023-10-09T06:22:57;18.00;99.90
22337;DHT22;14992;50.844;4.418;2023-10-09T06:25:26;18.00;99.90
22337;DHT22;14992;50.844;4.418;2023-10-09T06:28:00;18.10;99.90
22337;DHT22;14992;50.844;4.418;2023-10-09T06:30:30;18.00;99.90
22337;DHT22;14992;50.844;4.418;2023-10-09T06:33:02;17.90;99.90
22337;DHT22;14992;50.844;4.418;2023-10-09T06:35:47;17.80;99.90
22337;DHT22;14992;50.844;4.418;2023-10-09T06:38:22;17.80;99.90
22337;DHT22;14992;50.844;4.418;2023-10-09T06:41:01;17.80;99.90
22337;DHT22;14992;50.844;4.418;2023-10-09T06:43:47;17.80;99.90
22337;DHT22;14992;50.844;4.418;2023-10-09T06:46:21;17.70;99.90
22337;DHT22;14992;50.844;4.418;2023-10-09T06:49:08;17.80;99.90
22337;DHT22;14992;50.844;4.418;2023-10-09T06:51:51;17.70;99.90
22337;DHT22;14992;50.844;4.418;2023-10-09T06:54:24;17.80;99.90
22337;DHT22;14992;50.844;4.418;2023-10-09T06:56:54;17.80;99.90
22337;DHT22;14992;50.844;4.418;2023-10-09T06:59:41;17.90;99.90
22337;DHT22;14992;50.844;4.418;2023-10-09T07:02:29;17.90;99.90
22337;DHT22;14992;50.844;4.418;2023-10-09T07:05:14;17.90;99.90
22337;DHT22;14992;50.844;4.418;2023-10-09T07:07:45;17.90;99.90
22337;DHT22;14992;50.844;4.418;2023-10-09T07:10:24;18.00;99.90
22337;DHT22;14992;50.844;4.418;2023-10-09T07:13:00;18.00;99.90
22337;DHT22;14992;50.844;4.418;2023-10-09T07:15:31;17.90;99.90
22337;DHT22;14992;50.844;4.418;2023-10-09T07:18:17;18.00;99.90
22337;DHT22;14992;50.844;4.418;2023-10-09T07:21:13;18.00;99.90
22337;DHT22;14992;50.844;4.418;2023-10-09T07:23:45;18.20;99.90
22337;DHT22;14992;50.844;4.418;2023-10-09T07:26:18;18.30;99.90
22337;DHT22;14992;50.844;4.418;2023-10-09T07:28:51;18.30;99.90
22337;DHT22;14992;50.844;4.418;2023-10-09T07:31:28;18.30;99.90
22337;DHT22;14992;50.844;4.418;2023-10-09T07:34:07;18.30;99.90
22337;DHT22;14992;50.844;4.418;2023-10-09T07:36:50;18.20;99.90
22337;DHT22;14992;50.844;4.418;2023-10-09T07:39:24;18.10;99.90
22337;DHT22;14992;50.844;4.418;2023-10-09T07:42:05;18.20;99.90
22337;DHT22;14992;50.844;4.418;2023-10-09T07:44:48;18.20;99.90
22337;DHT22;14992;50.844;4.418;2023-10-09T07:47:21;18.30;99.90
22337;DHT22;14992;50.844;4.418;2023-10-09T07:50:13;18.40;99.90
22337;DHT22;14992;50.844;4.418;2023-10-09T07:52:49;18.50;99.90
22337;DHT22;14992;50.844;4.418;2023-10-09T07:55:21;18.70;99.90
22337;DHT22;14992;50.844;4.418;2023-10-09T07:58:08;18.90;99.90
22337;DHT22;14992;50.844;4.418;2023-10-09T08:00:39;18.90;99.90
22337;DHT22;14992;50.844;4.418;2023-10-09T08:03:34;18.90;99.90
22337;DHT22;14992;50.844;4.418;2023-10-09T08:06:04;19.00;99.90
22337;DHT22;14992;50.844;4.418;2023-10-09T08:08:57;19.00;99.90
22337;DHT22;14992;50.844;4.418;2023-10-09T08:11:50;18.90;99.90
22337;DHT22;14992;50.844;4.418;2023-10-09T08:14:40;18.90;99.90
22337;DHT22;14992;50.844;4.418;2023-10-09T08:17:13;18.80;99.90
22337;DHT22;14992;50.844;4.418;2023-10-09T08:19:49;18.90;99.90
22337;DHT22;14992;50.844;4.418;2023-10-09T08:22:28;18.80;99.90
22337;DHT22;14992;50.844;4.418;2023-10-09T08:25:11;18.80;99.90
22337;DHT22;14992;50.844;4.418;2023-10-09T08:27:55;18.70;99.90
22337;DHT22;14992;50.844;4.418;2023-10-09T08:30:26;18.80;99.90
22337;DHT22;14992;50.844;4.418;2023-10-09T08:33:08;18.80;99.90
22337;DHT22;14992;50.844;4.418;2023-10-09T08:35:57;18.90;99.90
22337;DHT22;14992;50.844;4.418;2023-10-09T08:38:34;19.00;99.90
22337;DHT22;14992;50.844;4.418;2023-10-09T08:41:07;19.00;99.90
22337;DHT22;14992;50.844;4.418;2023-10-09T08:43:47;19.10;99.90
22337;DHT22;14992;50.844;4.418;2023-10-09T08:46:22;19.00;99.90
22337;DHT22;14992;50.844;4.418;2023-10-09T08:48:55;19.00;99.90
22337;DHT22;14992;50.844;4.418;2023-10-09T08:51:26;18.90;99.90
22337;DHT22;14992;50.844;4.418;2023-10-09T08:53:56;18.90;99.90
22337;DHT22;14992;50.844;4.418;2023-10-09T08:56:25;18.80;99.90
22337;DHT22;14992;50.844;4.418;2023-10-09T08:58:57;18.80;99.90
22337;DHT22;14992;50.844;4.418;2023-10-09T09:01:29;18.80;99.90
22337;DHT22;14992;50.844;4.418;2023-10-09T09:04:00;18.90;99.90
22337;DHT22;14992;50.844;4.418;2023-10-09T09:06:36;19.10;99.90
22337;DHT22;14992;50.844;4.418;2023-10-09T09:09:11;19.20;99.90
22337;DHT22;14992;50.844;4.418;2023-10-09T09:11:43;19.30;99.90
22337;DHT22;14992;50.844;4.418;2023-10-09T09:14:18;19.40;99.90
22337;DHT22;14992;50.844;4.418;2023-10-09T09:16:51;19.60;99.90
22337;DHT22;14992;50.844;4.418;2023-10-09T09:19:31;19.70;99.90
22337;DHT22;14992;50.844;4.418;2023-10-09T09:22:00;19.80;99.90
22337;DHT22;14992;50.844;4.418;2023-10-09T09:24:39;19.90;99.90
22337;DHT22;14992;50.844;4.418;2023-10-09T09:27:13;19.90;99.90
22337;DHT22;14992;50.844;4.418;2023-10-09T09:29:46;19.80;99.90
22337;DHT22;14992;50.844;4.418;2023-10-09T09:32:29;19.90;99.90
22337;DHT22;14992;50.844;4.418;2023-10-09T09:35:08;19.90;99.90
22337;DHT22;14992;50.844;4.418;2023-10-09T09:37:52;20.00;99.90
22337;DHT22;14992;50.844;4.418;2023-10-09T09:40:23;20.00;99.90
22337;DHT22;14992;50.844;4.418;2023-10-09T09:43:02;20.00;99.90
22337;DHT22;14992;50.844;4.418;2023-10-09T09:45:35;20.20;99.90
22337;DHT22;14992;50.844;4.418;2023-10-09T09:48:06;20.20;99.90
22337;DHT22;14992;50.844;4.418;2023-10-09T09:50:38;20.30;99.90
22337;DHT22;14992;50.844;4.418;2023-10-09T09:53:12;20.40;99.90
22337;DHT22;14992;50.844;4.418;2023-10-09T09:55:50;20.40;99.90
22337;DHT22;14992;50.844;4.418;2023-10-09T09:58:26;20.60;99.90
22337;DHT22;14992;50.844;4.418;2023-10-09T10:01:03;20.80;99.90
22337;DHT22;14992;50.844;4.418;2023-10-09T10:03:48;21.00;99.90
22337;DHT22;14992;50.844;4.418;2023-10-09T10:06:19;21.10;99.90
22337;DHT22;14992;50.844;4.418;2023-10-09T10:08:49;21.10;99.90
22337;DHT22;14992;50.844;4.418;2023-10-09T10:11:41;21.10;99.90
22337;DHT22;14992;50.844;4.418;2023-10-09T10:14:12;21.20;99.90
22337;DHT22;14992;50.844;4.418;2023-10-09T10:17:03;21.20;99.90
22337;DHT22;14992;50.844;4.418;2023-10-09T10:20:02;21.10;99.90
22337;DHT22;14992;50.844;4.418;2023-10-09T10:23:16;21.20;99.90
22337;DHT22;14992;50.844;4.418;2023-10-09T10:25:47;21.20;99.90
22337;DHT22;14992;50.844;4.418;2023-10-09T10:28:19;21.30;99.90
22337;DHT22;14992;50.844;4.418;2023-10-09T10:31:03;21.30;99.90
22337;DHT22;14992;50.844;4.418;2023-10-09T10:34:05;21.30;99.90
22337;DHT22;14992;50.844;4.418;2023-10-09T10:36:40;21.50;99.90
22337;DHT22;14992;50.844;4.418;2023-10-09T10:39:12;21.60;99.90
22337;DHT22;14992;50.844;4.418;2023-10-09T10:41:55;21.60;99.90
22337;DHT22;14992;50.844;4.418;2023-10-09T10:44:29;21.70;99.90
22337;DHT22;14992;50.844;4.418;2023-10-09T10:47:11;21.70;99.90
22337;DHT22;14992;50.844;4.418;2023-10-09T10:50:01;21.70;99.90
22337;DHT22;14992;50.844;4.418;2023-10-09T10:53:09;21.60;99.90
22337;DHT22;14992;50.844;4.418;2023-10-09T10:55:54;21.60;99.90
22337;DHT22;14992;50.844;4.418;2023-10-09T10:58:24;21.60;99.90
22337;DHT22;14992;50.844;4.418;2023-10-09T11:01:02;21.60;99.90
22337;DHT22;14992;50.844;4.418;2023-10-09T11:03:42;21.60;99.90
22337;DHT22;14992;50.844;4.418;2023-10-09T11:06:27;21.60;99.90
22337;DHT22;14992;50.844;4.418;2023-10-09T11:09:08;21.60;99.90
22337;DHT22;14992;50.844;4.418;2023-10-09T11:11:50;21.70;99.90
22337;DHT22;14992;50.844;4.418;2023-10-09T11:14:23;21.60;99.90
22337;DHT22;14992;50.844;4.418;2023-10-09T11:16:53;21.80;99.90
22337;DHT22;14992;50.844;4.418;2023-10-09T11:19:27;21.90;99.90
22337;DHT22;14992;50.844;4.418;2023-10-09T11:22:01;22.00;99.90
22337;DHT22;14992;50.844;4.418;2023-10-09T11:24:50;22.20;99.90
22337;DHT22;14992;50.844;4.418;2023-10-09T11:27:40;22.30;99.90
22337;DHT22;14992;50.844;4.418;2023-10-09T11:30:18;22.50;99.90
22337;DHT22;14992;50.844;4.418;2023-10-09T11:33:06;22.60;99.90
22337;DHT22;14992;50.844;4.418;2023-10-09T11:35:54;22.70;99.90
22337;DHT22;14992;50.844;4.418;2023-10-09T11:38:24;22.80;99.90
22337;DHT22;14992;50.844;4.418;2023-10-09T11:40:57;22.90;99.90
22337;DHT22;14992;50.844;4.418;2023-10-09T11:43:50;22.80;99.90
22337;DHT22;14992;50.844;4.418;2023-10-09T11:46:25;22.70;99.90
22337;DHT22;14992;50.844;4.418;2023-10-09T11:49:17;22.70;99.90
22337;DHT22;14992;50.844;4.418;2023-10-09T11:52:06;22.80;99.90
22337;DHT22;14992;50.844;4.418;2023-10-09T11:54:53;22.70;99.90
22337;DHT22;14992;50.844;4.418;2023-10-09T11:57:31;22.70;99.90
22337;DHT22;14992;50.844;4.418;2023-10-09T12:00:03;22.70;99.90
22337;DHT22;14992;50.844;4.418;2023-10-09T12:02:52;22.50;99.90
22337;DHT22;14992;50.844;4.418;2023-10-09T12:05:21;22.50;99.90
22337;DHT22;14992;50.844;4.418;2023-10-09T12:07:50;22.60;99.90
22337;DHT22;14992;50.844;4.418;2023-10-09T12:10:22;22.90;99.90
22337;DHT22;14992;50.844;4.418;2023-10-09T12:12:55;22.80;99.90
22337;DHT22;14992;50.844;4.418;2023-10-09T12:15:25;22.60;99.90
22337;DHT22;14992;50.844;4.418;2023-10-09T12:18:06;22.50;99.90
22337;DHT22;14992;50.844;4.418;2023-10-09T12:20:42;22.40;99.90
22337;DHT22;14992;50.844;4.418;2023-10-09T12:23:18;22.50;99.90
22337;DHT22;14992;50.844;4.418;2023-10-09T12:25:48;22.60;99.90
22337;DHT22;14992;50.844;4.418;2023-10-09T12:28:19;22.70;99.90
22337;DHT22;14992;50.844;4.418;2023-10-09T12:30:49;22.80;99.90
22337;DHT22;14992;50.844;4.418;2023-10-09T12:33:20;22.80;99.90
22337;DHT22;14992;50.844;4.418;2023-10-09T12:35:56;23.00;99.90
22337;DHT22;14992;50.844;4.418;2023-10-09T12:38:29;23.00;99.90
22337;DHT22;14992;50.844;4.418;2023-10-09T12:41:04;23.20;99.90
22337;DHT22;14992;50.844;4.418;2023-10-09T12:43:47;23.30;99.90
22337;DHT22;14992;50.844;4.418;2023-10-09T12:46:15;23.50;99.90
22337;DHT22;14992;50.844;4.418;2023-10-09T12:48:45;23.60;99.90
22337;DHT22;14992;50.844;4.418;2023-10-09T12:51:15;23.60;99.90
22337;DHT22;14992;50.844;4.418;2023-10-09T12:53:45;23.70;99.90
22337;DHT22;14992;50.844;4.418;2023-10-09T12:56:16;23.60;99.90
22337;DHT22;14992;50.844;4.418;2023-10-09T12:58:47;23.60;99.90
22337;DHT22;14992;50.844;4.418;2023-10-09T13:01:21;23.60;99.90
22337;DHT22;14992;50.844;4.418;2023-10-09T13:03:50;23.60;99.90
22337;DHT22;14992;50.844;4.418;2023-10-09T13:06:19;23.60;99.90
22337;DHT22;14992;50.844;4.418;2023-10-09T13:08:52;23.50;99.90
22337;DHT22;14992;50.844;4.418;2023-10-09T13:11:27;23.40;99.90
22337;DHT22;14992;50.844;4.418;2023-10-09T13:13:57;23.40;99.90
22337;DHT22;14992;50.844;4.418;2023-10-09T13:16:39;23.30;99.90
22337;DHT22;14992;50.844;4.418;2023-10-09T13:19:08;23.30;99.90
22337;DHT22;14992;50.844;4.418;2023-10-09T13:21:38;23.50;99.90
22337;DHT22;14992;50.844;4.418;2023-10-09T13:24:11;23.60;99.90
22337;DHT22;14992;50.844;4.418;2023-10-09T13:26:44;23.50;99.90
22337;DHT22;14992;50.844;4.418;2023-10-09T13:29:15;23.50;99.90
22337;DHT22;14992;50.844;4.418;2023-10-09T13:31:52;23.50;99.90
22337;DHT22;14992;50.844;4.418;2023-10-09T13:34:26;23.40;99.90
22337;DHT22;14992;50.844;4.418;2023-10-09T13:36:56;23.40;99.90
22337;DHT22;14992;50.844;4.418;2023-10-09T13:39:27;23.40;99.90
22337;DHT22;14992;50.844;4.418;2023-10-09T13:41:58;23.40;99.90
22337;DHT22;14992;50.844;4.418;2023-10-09T13:44:31;23.50;99.90
22337;DHT22;14992;50.844;4.418;2023-10-09T13:47:05;23.50;99.90
22337;DHT22;14992;50.844;4.418;2023-10-09T13:49:36;23.50;99.90
22337;DHT22;14992;50.844;4.418;2023-10-09T13:52:10;23.50;99.90
22337;DHT22;14992;50.844;4.418;2023-10-09T13:54:45;23.50;99.90
22337;DHT22;14992;50.844;4.418;2023-10-09T13:57:17;23.40;99.90
22337;DHT22;14992;50.844;4.418;2023-10-09T13:59:51;23.50;99.90
22337;DHT22;14992;50.844;4.418;2023-10-09T14:02:23;23.50;99.90
22337;DHT22;14992;50.844;4.418;2023-10-09T14:04:56;23.50;99.90
22337;DHT22;14992;50.844;4.418;2023-10-09T14:07:28;23.50;99.90
22337;DHT22;14992;50.844;4.418;2023-10-09T14:09:58;23.70;99.90
22337;DHT22;14992;50.844;4.418;2023-10-09T14:12:44;23.60;99.90
22337;DHT22;14992;50.844;4.418;2023-10-09T14:15:15;23.70;99.90
22337;DHT22;14992;50.844;4.418;2023-10-09T14:17:45;23.70;99.90
22337;DHT22;14992;50.844;4.418;2023-10-09T14:20:23;23.80;99.90
22337;DHT22;14992;50.844;4.418;2023-10-09T14:22:59;23.70;99.90
22337;DHT22;14992;50.844;4.418;2023-10-09T14:25:34;23.60;99.90
22337;DHT22;14992;50.844;4.418;2023-10-09T14:28:06;23.50;99.90
22337;DHT22;14992;50.844;4.418;2023-10-09T14:30:38;23.60;99.90
22337;DHT22;14992;50.844;4.418;2023-10-09T14:33:10;23.60;99.90
22337;DHT22;14992;50.844;4.418;2023-10-09T14:35:50;23.70;99.90
22337;DHT22;14992;50.844;4.418;2023-10-09T14:38:20;23.70;99.90
22337;DHT22;14992;50.844;4.418;2023-10-09T14:40:54;23.60;99.90
22337;DHT22;14992;50.844;4.418;2023-10-09T14:43:27;23.70;99.90
22337;DHT22;14992;50.844;4.418;2023-10-09T14:46:02;23.70;99.90
22337;DHT22;14992;50.844;4.418;2023-10-09T14:48:38;23.60;99.90
22337;DHT22;14992;50.844;4.418;2023-10-09T14:51:08;23.50;99.90
22337;DHT22;14992;50.844;4.418;2023-10-09T14:53:44;23.40;99.90
22337;DHT22;14992;50.844;4.418;2023-10-09T14:56:13;23.30;99.90
22337;DHT22;14992;50.844;4.418;2023-10-09T14:58:45;23.40;99.90
22337;DHT22;14992;50.844;4.418;2023-10-09T15:01:16;23.50;99.90
22337;DHT22;14992;50.844;4.418;2023-10-09T15:03:47;23.50;99.90
22337;DHT22;14992;50.844;4.418;2023-10-09T15:06:20;23.40;99.90
22337;DHT22;14992;50.844;4.418;2023-10-09T15:08:58;23.30;99.90
22337;DHT22;14992;50.844;4.418;2023-10-09T15:11:36;23.10;99.90
22337;DHT22;14992;50.844;4.418;2023-10-09T15:14:06;22.90;99.90
22337;DHT22;14992;50.844;4.418;2023-10-09T15:16:37;22.80;99.90
22337;DHT22;14992;50.844;4.418;2023-10-09T15:19:07;22.80;99.90
22337;DHT22;14992;50.844;4.418;2023-10-09T15:21:37;22.90;99.90
22337;DHT22;14992;50.844;4.418;2023-10-09T15:24:12;23.00;99.90
22337;DHT22;14992;50.844;4.418;2023-10-09T15:26:46;22.90;99.90
22337;DHT22;14992;50.844;4.418;2023-10-09T15:29:20;22.90;99.90
22337;DHT22;14992;50.844;4.418;2023-10-09T15:31:52;22.80;99.90
22337;DHT22;14992;50.844;4.418;2023-10-09T15:34:21;22.80;99.90
22337;DHT22;14992;50.844;4.418;2023-10-09T15:36:52;22.80;99.90
22337;DHT22;14992;50.844;4.418;2023-10-09T15:39:21;22.70;99.90
22337;DHT22;14992;50.844;4.418;2023-10-09T15:41:51;22.80;99.90
22337;DHT22;14992;50.844;4.418;2023-10-09T15:44:20;22.70;99.90
22337;DHT22;14992;50.844;4.418;2023-10-09T15:46:56;22.80;99.90
22337;DHT22;14992;50.844;4.418;2023-10-09T15:49:28;22.70;99.90
22337;DHT22;14992;50.844;4.418;2023-10-09T15:51:57;22.60;99.90
22337;DHT22;14992;50.844;4.418;2023-10-09T15:54:27;22.60;99.90
22337;DHT22;14992;50.844;4.418;2023-10-09T15:56:56;22.40;99.90
22337;DHT22;14992;50.844;4.418;2023-10-09T15:59:39;22.40;99.90
22337;DHT22;14992;50.844;4.418;2023-10-09T16:02:09;22.40;99.90
22337;DHT22;14992;50.844;4.418;2023-10-09T16:04:38;22.40;99.90
22337;DHT22;14992;50.844;4.418;2023-10-09T16:07:08;22.40;99.90
22337;DHT22;14992;50.844;4.418;2023-10-09T16:09:37;22.40;99.90
22337;DHT22;14992;50.844;4.418;2023-10-09T16:12:07;22.30;99.90
22337;DHT22;14992;50.844;4.418;2023-10-09T16:14:37;22.30;99.90
22337;DHT22;14992;50.844;4.418;2023-10-09T16:17:06;22.20;99.90
22337;DHT22;14992;50.844;4.418;2023-10-09T16:19:38;22.20;99.90
22337;DHT22;14992;50.844;4.418;2023-10-09T16:22:08;22.10;99.90
22337;DHT22;14992;50.844;4.418;2023-10-09T16:24:38;22.10;99.90
22337;DHT22;14992;50.844;4.418;2023-10-09T16:27:07;22.00;99.90